sensor_id;sensor_type;location;lat;lon;timestamp;temperature;humidity
1137;DHT22;557;48.466;7.950;2023-02-15T00:02:12;0.50;99.90
1137;DHT22;557;48.466;7.950;2023-02-15T00:04:59;0.50;99.90
1137;DHT22;557;48.466;7.950;2023-02-15T00:07:47;0.50;99.90
1137;DHT22;557;48.466;7.950;2023-02-15T00:10:34;0.50;99.90
1137;DHT22;557;48.466;7.950;2023-02-15T00:13:21;0.50;99.90
1137;DHT22;557;48.466;7.950;2023-02-15T00:16:12;0.40;99.90
1137;DHT22;557;48.466;7.950;2023-02-15T00:18:59;0.40;99.90
1137;DHT22;557;48.466;7.950;2023-02-15T00:21:48;0.30;99.90
1137;DHT22;557;48.466;7.950;2023-02-15T00:24:36;0.40;99.90
1137;DHT22;557;48.466;7.950;2023-02-15T00:27:23;0.40;99.90
1137;DHT22;557;48.466;7.950;2023-02-15T00:30:11;0.30;99.90
1137;DHT22;557;48.466;7.950;2023-02-15T00:33:00;0.30;99.90
1137;DHT22;557;48.466;7.950;2023-02-15T00:35:47;0.30;99.90
1137;DHT22;557;48.466;7.950;2023-02-15T00:38:35;0.30;99.90
1137;DHT22;557;48.466;7.950;2023-02-15T00:41:23;0.30;99.90
1137;DHT22;557;48.466;7.950;2023-02-15T00:44:10;0.30;99.90
1137;DHT22;557;48.466;7.950;2023-02-15T00:46:58;0.20;99.90
1137;DHT22;557;48.466;7.950;2023-02-15T00:49:48;0.30;99.90
1137;DHT22;557;48.466;7.950;2023-02-15T00:52:35;0.20;99.90
1137;DHT22;557;48.466;7.950;2023-02-15T00:55:22;0.20;99.90
1137;DHT22;557;48.466;7.950;2023-02-15T00:58:11;0.20;99.90
1137;DHT22;557;48.466;7.950;2023-02-15T01:01:03;0.10;99.90
1137;DHT22;557;48.466;7.950;2023-02-15T01:03:51;0.20;99.90
1137;DHT22;557;48.466;7.950;2023-02-15T01:06:40;0.10;99.90
1137;DHT22;557;48.466;7.950;2023-02-15T01:09:27;0.00;99.90
1137;DHT22;557;48.466;7.950;2023-02-15T01:12:14;-0.10;99.90
1137;DHT22;557;48.466;7.950;2023-02-15T01:15:02;-0.10;99.90
1137;DHT22;557;48.466;7.950;2023-02-15T01:17:49;-0.10;99.90
1137;DHT22;557;48.466;7.950;2023-02-15T01:20:39;-0.20;99.90
1137;DHT22;557;48.466;7.950;2023-02-15T01:23:28;-0.20;99.90
1137;DHT22;557;48.466;7.950;2023-02-15T01:26:16;-0.20;99.90
1137;DHT22;557;48.466;7.950;2023-02-15T01:29:04;-0.20;99.90
1137;DHT22;557;48.466;7.950;2023-02-15T01:31:51;-0.20;99.90
1137;DHT22;557;48.466;7.950;2023-02-15T01:34:39;-0.20;99.90
1137;DHT22;557;48.466;7.950;2023-02-15T01:37:26;-0.20;99.90
1137;DHT22;557;48.466;7.950;2023-02-15T01:40:16;-0.20;99.90
1137;DHT22;557;48.466;7.950;2023-02-15T01:43:10;-0.20;99.90
1137;DHT22;557;48.466;7.950;2023-02-15T01:45:57;-0.20;99.90
1137;DHT22;557;48.466;7.950;2023-02-15T01:48:47;-0.20;99.90
1137;DHT22;557;48.466;7.950;2023-02-15T01:51:36;-0.20;99.90
1137;DHT22;557;48.466;7.950;2023-02-15T01:54:29;-0.20;99.90
1137;DHT22;557;48.466;7.950;2023-02-15T01:57:22;-0.20;99.90
1137;DHT22;557;48.466;7.950;2023-02-15T02:00:12;-0.40;99.90
1137;DHT22;557;48.466;7.950;2023-02-15T02:03:00;-0.30;99.90
1137;DHT22;557;48.466;7.950;2023-02-15T02:05:48;-0.30;99.90
1137;DHT22;557;48.466;7.950;2023-02-15T02:08:35;-0.20;99.90
1137;DHT22;557;48.466;7.950;2023-02-15T02:11:23;-0.10;99.90
1137;DHT22;557;48.466;7.950;2023-02-15T02:14:12;-0.10;99.90
1137;DHT22;557;48.466;7.950;2023-02-15T02:17:06;-0.10;99.90
1137;DHT22;557;48.466;7.950;2023-02-15T02:20:28;-0.20;99.90
1137;DHT22;557;48.466;7.950;2023-02-15T02:23:24;-0.20;99.90
1137;DHT22;557;48.466;7.950;2023-02-15T02:26:54;-0.30;99.90
1137;DHT22;557;48.466;7.950;2023-02-15T02:33:32;-0.20;99.90
1137;DHT22;557;48.466;7.950;2023-02-15T02:36:29;0.00;99.90
1137;DHT22;557;48.466;7.950;2023-02-15T02:39:27;0.10;99.90
1137;DHT22;557;48.466;7.950;2023-02-15T02:42:21;0.20;99.90
1137;DHT22;557;48.466;7.950;2023-02-15T02:45:16;0.20;99.90
1137;DHT22;557;48.466;7.950;2023-02-15T02:48:10;0.10;99.90
1137;DHT22;557;48.466;7.950;2023-02-15T02:51:00;0.20;99.90
1137;DHT22;557;48.466;7.950;2023-02-15T02:53:50;0.10;99.90
1137;DHT22;557;48.466;7.950;2023-02-15T02:56:42;0.10;99.90
1137;DHT22;557;48.466;7.950;2023-02-15T02:59:37;0.10;99.90
1137;DHT22;557;48.466;7.950;2023-02-15T03:02:31;0.10;99.90
1137;DHT22;557;48.466;7.950;2023-02-15T03:05:21;0.10;99.90
1137;DHT22;557;48.466;7.950;2023-02-15T03:08:14;0.10;99.90
1137;DHT22;557;48.466;7.950;2023-02-15T03:11:07;0.00;99.90
1137;DHT22;557;48.466;7.950;2023-02-15T03:13:55;0.10;99.90
1137;DHT22;557;48.466;7.950;2023-02-15T03:16:44;0.00;99.90
1137;DHT22;557;48.466;7.950;2023-02-15T03:19:35;0.00;99.90
1137;DHT22;557;48.466;7.950;2023-02-15T03:22:28;-0.10;99.90
1137;DHT22;557;48.466;7.950;2023-02-15T03:25:21;0.00;99.90
1137;DHT22;557;48.466;7.950;2023-02-15T03:28:13;-0.10;99.90
1137;DHT22;557;48.466;7.950;2023-02-15T03:31:05;-0.10;99.90
1137;DHT22;557;48.466;7.950;2023-02-15T03:33:57;-0.10;99.90
1137;DHT22;557;48.466;7.950;2023-02-15T03:36:50;-0.20;99.90
1137;DHT22;557;48.466;7.950;2023-02-15T03:39:44;-0.20;99.90
1137;DHT22;557;48.466;7.950;2023-02-15T03:42:37;-0.20;99.90
1137;DHT22;557;48.466;7.950;2023-02-15T03:45:29;-0.10;99.90
1137;DHT22;557;48.466;7.950;2023-02-15T03:48:18;-0.10;99.90
1137;DHT22;557;48.466;7.950;2023-02-15T03:51:08;-0.20;99.90
1137;DHT22;557;48.466;7.950;2023-02-15T03:54:18;-0.10;99.90
1137;DHT22;557;48.466;7.950;2023-02-15T03:57:22;-0.10;99.90
1137;DHT22;557;48.466;7.950;2023-02-15T04:00:34;-0.10;99.90
1137;DHT22;557;48.466;7.950;2023-02-15T04:03:42;-0.20;99.90
1137;DHT22;557;48.466;7.950;2023-02-15T04:06:30;-0.30;99.90
1137;DHT22;557;48.466;7.950;2023-02-15T04:09:18;-0.30;99.90
1137;DHT22;557;48.466;7.950;2023-02-15T04:12:22;-0.30;99.90
1137;DHT22;557;48.466;7.950;2023-02-15T04:15:12;-0.40;99.90
1137;DHT22;557;48.466;7.950;2023-02-15T04:18:18;-0.30;99.90
1137;DHT22;557;48.466;7.950;2023-02-15T04:21:06;-0.30;99.90
1137;DHT22;557;48.466;7.950;2023-02-15T04:24:11;-0.30;99.90
1137;DHT22;557;48.466;7.950;2023-02-15T04:27:16;-0.30;99.90
1137;DHT22;557;48.466;7.950;2023-02-15T04:30:04;-0.40;99.90
1137;DHT22;557;48.466;7.950;2023-02-15T04:32:53;-0.40;99.90
1137;DHT22;557;48.466;7.950;2023-02-15T04:35:43;-0.40;99.90
1137;DHT22;557;48.466;7.950;2023-02-15T04:38:31;-0.40;99.90
1137;DHT22;557;48.466;7.950;2023-02-15T04:41:19;-0.50;99.90
1137;DHT22;557;48.466;7.950;2023-02-15T04:44:06;-0.50;99.90
1137;DHT22;557;48.466;7.950;2023-02-15T04:46:53;-0.50;99.90
1137;DHT22;557;48.466;7.950;2023-02-15T04:49:41;-0.50;99.90
1137;DHT22;557;48.466;7.950;2023-02-15T04:52:29;-0.50;99.90
1137;DHT22;557;48.466;7.950;2023-02-15T04:55:17;-0.50;99.90
1137;DHT22;557;48.466;7.950;2023-02-15T04:58:04;-0.40;99.90
1137;DHT22;557;48.466;7.950;2023-02-15T05:00:55;-0.40;99.90
1137;DHT22;557;48.466;7.950;2023-02-15T05:03:42;-0.50;99.90
1137;DHT22;557;48.466;7.950;2023-02-15T05:06:30;-0.50;99.90
1137;DHT22;557;48.466;7.950;2023-02-15T05:09:18;-0.50;99.90
1137;DHT22;557;48.466;7.950;2023-02-15T05:12:06;-0.50;99.90
1137;DHT22;557;48.466;7.950;2023-02-15T05:14:53;-0.50;99.90
1137;DHT22;557;48.466;7.950;2023-02-15T05:17:41;-0.60;99.90
1137;DHT22;557;48.466;7.950;2023-02-15T05:20:28;-0.60;99.90
1137;DHT22;557;48.466;7.950;2023-02-15T05:23:15;-0.60;99.90
1137;DHT22;557;48.466;7.950;2023-02-15T05:26:04;-0.70;99.90
1137;DHT22;557;48.466;7.950;2023-02-15T05:29:17;-0.70;99.90
1137;DHT22;557;48.466;7.950;2023-02-15T05:32:04;-0.80;99.90
1137;DHT22;557;48.466;7.950;2023-02-15T05:34:53;-0.70;99.90
1137;DHT22;557;48.466;7.950;2023-02-15T05:37:40;-0.70;99.90
1137;DHT22;557;48.466;7.950;2023-02-15T05:40:27;-0.70;99.90
1137;DHT22;557;48.466;7.950;2023-02-15T05:43:16;-0.70;99.90
1137;DHT22;557;48.466;7.950;2023-02-15T05:46:04;-0.70;99.90
1137;DHT22;557;48.466;7.950;2023-02-15T05:48:51;-0.70;99.90
1137;DHT22;557;48.466;7.950;2023-02-15T05:51:39;-0.70;99.90
1137;DHT22;557;48.466;7.950;2023-02-15T05:54:26;-0.70;99.90
1137;DHT22;557;48.466;7.950;2023-02-15T05:57:14;-0.80;99.90
1137;DHT22;557;48.466;7.950;2023-02-15T06:00:04;-0.90;99.90
1137;DHT22;557;48.466;7.950;2023-02-15T06:02:51;-0.80;99.90
1137;DHT22;557;48.466;7.950;2023-02-15T06:05:39;-0.80;99.90
1137;DHT22;557;48.466;7.950;2023-02-15T06:08:26;-0.90;99.90
1137;DHT22;557;48.466;7.950;2023-02-15T06:11:13;-0.80;99.90
1137;DHT22;557;48.466;7.950;2023-02-15T06:14:01;-0.80;99.90
1137;DHT22;557;48.466;7.950;2023-02-15T06:16:50;-0.80;99.90
1137;DHT22;557;48.466;7.950;2023-02-15T06:19:37;-0.80;99.90
1137;DHT22;557;48.466;7.950;2023-02-15T06:22:24;-0.80;99.90
1137;DHT22;557;48.466;7.950;2023-02-15T06:25:12;-0.80;99.90
1137;DHT22;557;48.466;7.950;2023-02-15T06:27:59;-0.80;99.90
1137;DHT22;557;48.466;7.950;2023-02-15T06:30:47;-0.70;99.90
1137;DHT22;557;48.466;7.950;2023-02-15T06:33:35;-0.70;99.90
1137;DHT22;557;48.466;7.950;2023-02-15T06:36:24;-0.70;99.90
1137;DHT22;557;48.466;7.950;2023-02-15T06:39:11;-0.70;99.90
1137;DHT22;557;48.466;7.950;2023-02-15T06:41:58;-0.60;99.90
1137;DHT22;557;48.466;7.950;2023-02-15T06:44:46;-0.60;99.90
1137;DHT22;557;48.466;7.950;2023-02-15T06:47:33;-0.70;99.90
1137;DHT22;557;48.466;7.950;2023-02-15T06:50:22;-0.80;99.90
1137;DHT22;557;48.466;7.950;2023-02-15T06:53:09;-0.80;99.90
1137;DHT22;557;48.466;7.950;2023-02-15T06:56:00;-0.80;99.90
1137;DHT22;557;48.466;7.950;2023-02-15T06:58:52;-0.60;99.90
1137;DHT22;557;48.466;7.950;2023-02-15T07:01:39;-0.70;99.90
1137;DHT22;557;48.466;7.950;2023-02-15T07:04:26;-0.70;99.90
1137;DHT22;557;48.466;7.950;2023-02-15T07:07:17;-0.70;99.90
1137;DHT22;557;48.466;7.950;2023-02-15T07:10:05;-0.70;99.90
1137;DHT22;557;48.466;7.950;2023-02-15T07:12:53;-0.80;99.90
1137;DHT22;557;48.466;7.950;2023-02-15T07:15:40;-0.80;99.90
1137;DHT22;557;48.466;7.950;2023-02-15T07:18:27;-0.90;99.90
1137;DHT22;557;48.466;7.950;2023-02-15T07:21:15;-0.90;99.90
1137;DHT22;557;48.466;7.950;2023-02-15T07:24:04;-0.90;99.90
1137;DHT22;557;48.466;7.950;2023-02-15T07:26:51;-0.90;99.90
1137;DHT22;557;48.466;7.950;2023-02-15T07:29:38;-0.90;99.90
1137;DHT22;557;48.466;7.950;2023-02-15T07:32:28;-0.90;99.90
1137;DHT22;557;48.466;7.950;2023-02-15T07:35:15;-0.80;99.90
1137;DHT22;557;48.466;7.950;2023-02-15T07:38:03;-0.80;99.90
1137;DHT22;557;48.466;7.950;2023-02-15T07:40:56;-0.90;99.90
1137;DHT22;557;48.466;7.950;2023-02-15T07:43:44;-0.80;99.90
1137;DHT22;557;48.466;7.950;2023-02-15T07:46:32;-0.70;99.90
1137;DHT22;557;48.466;7.950;2023-02-15T07:49:20;-0.70;99.90
1137;DHT22;557;48.466;7.950;2023-02-15T07:52:07;-0.80;99.90
1137;DHT22;557;48.466;7.950;2023-02-15T07:54:55;-0.90;99.90
1137;DHT22;557;48.466;7.950;2023-02-15T07:57:44;-0.80;99.90
1137;DHT22;557;48.466;7.950;2023-02-15T08:00:32;-0.70;99.90
1137;DHT22;557;48.466;7.950;2023-02-15T08:03:39;-0.70;99.90
1137;DHT22;557;48.466;7.950;2023-02-15T08:06:28;-0.60;99.90
1137;DHT22;557;48.466;7.950;2023-02-15T08:09:16;-0.60;99.90
1137;DHT22;557;48.466;7.950;2023-02-15T08:12:03;-0.60;99.90
1137;DHT22;557;48.466;7.950;2023-02-15T08:14:52;-0.70;99.90
1137;DHT22;557;48.466;7.950;2023-02-15T08:17:39;-0.60;99.90
1137;DHT22;557;48.466;7.950;2023-02-15T08:20:27;-0.50;99.90
1137;DHT22;557;48.466;7.950;2023-02-15T08:23:14;-0.40;99.90
1137;DHT22;557;48.466;7.950;2023-02-15T08:26:01;-0.40;99.90
1137;DHT22;557;48.466;7.950;2023-02-15T08:28:51;-0.30;99.90
1137;DHT22;557;48.466;7.950;2023-02-15T08:31:40;-0.20;99.90
1137;DHT22;557;48.466;7.950;2023-02-15T08:34:29;-0.30;99.90
1137;DHT22;557;48.466;7.950;2023-02-15T08:37:16;-0.30;99.90
1137;DHT22;557;48.466;7.950;2023-02-15T08:40:04;-0.40;99.90
1137;DHT22;557;48.466;7.950;2023-02-15T08:42:51;-0.40;99.90
1137;DHT22;557;48.466;7.950;2023-02-15T08:45:39;-0.30;99.90
1137;DHT22;557;48.466;7.950;2023-02-15T08:48:27;-0.30;99.90
1137;DHT22;557;48.466;7.950;2023-02-15T08:51:16;-0.10;99.90
1137;DHT22;557;48.466;7.950;2023-02-15T08:54:06;-0.20;99.90
1137;DHT22;557;48.466;7.950;2023-02-15T08:56:54;-0.20;99.90
1137;DHT22;557;48.466;7.950;2023-02-15T08:59:42;-0.20;99.90
1137;DHT22;557;48.466;7.950;2023-02-15T09:02:29;-0.30;99.90
1137;DHT22;557;48.466;7.950;2023-02-15T09:05:18;-0.30;99.90
1137;DHT22;557;48.466;7.950;2023-02-15T09:08:05;-0.30;99.90
1137;DHT22;557;48.466;7.950;2023-02-15T09:10:52;-0.20;99.90
1137;DHT22;557;48.466;7.950;2023-02-15T09:13:40;-0.10;99.90
1137;DHT22;557;48.466;7.950;2023-02-15T09:16:28;-0.10;99.90
1137;DHT22;557;48.466;7.950;2023-02-15T09:19:16;-0.20;99.90
1137;DHT22;557;48.466;7.950;2023-02-15T09:22:05;-0.20;99.90
1137;DHT22;557;48.466;7.950;2023-02-15T09:24:52;-0.10;99.90
1137;DHT22;557;48.466;7.950;2023-02-15T09:27:40;0.10;99.90
1137;DHT22;557;48.466;7.950;2023-02-15T09:30:28;0.00;99.90
1137;DHT22;557;48.466;7.950;2023-02-15T09:33:15;-0.10;99.90
1137;DHT22;557;48.466;7.950;2023-02-15T09:36:02;0.10;99.90
1137;DHT22;557;48.466;7.950;2023-02-15T09:38:55;0.20;99.90
1137;DHT22;557;48.466;7.950;2023-02-15T09:42:04;0.40;99.90
1137;DHT22;557;48.466;7.950;2023-02-15T09:45:06;0.70;99.90
1137;DHT22;557;48.466;7.950;2023-02-15T09:48:29;0.70;99.90
1137;DHT22;557;48.466;7.950;2023-02-15T09:51:31;0.50;99.90
1137;DHT22;557;48.466;7.950;2023-02-15T09:54:37;0.60;99.90
1137;DHT22;557;48.466;7.950;2023-02-15T09:57:35;0.70;99.90
1137;DHT22;557;48.466;7.950;2023-02-15T10:00:31;0.60;99.90
1137;DHT22;557;48.466;7.950;2023-02-15T10:03:41;0.70;99.90
1137;DHT22;557;48.466;7.950;2023-02-15T10:06:34;0.80;99.90
1137;DHT22;557;48.466;7.950;2023-02-15T10:09:39;1.00;99.90
1137;DHT22;557;48.466;7.950;2023-02-15T10:12:40;0.90;99.90
1137;DHT22;557;48.466;7.950;2023-02-15T10:15:52;1.00;99.90
1137;DHT22;557;48.466;7.950;2023-02-15T10:18:53;1.00;99.90
1137;DHT22;557;48.466;7.950;2023-02-15T10:21:52;1.00;99.90
1137;DHT22;557;48.466;7.950;2023-02-15T10:24:59;1.20;99.90
1137;DHT22;557;48.466;7.950;2023-02-15T10:28:05;1.30;99.90
1137;DHT22;557;48.466;7.950;2023-02-15T10:30:57;1.30;99.90
1137;DHT22;557;48.466;7.950;2023-02-15T10:33:51;1.30;99.90
1137;DHT22;557;48.466;7.950;2023-02-15T10:36:57;1.40;99.90
1137;DHT22;557;48.466;7.950;2023-02-15T10:39:54;1.70;99.90
1137;DHT22;557;48.466;7.950;2023-02-15T10:42:57;1.70;99.90
1137;DHT22;557;48.466;7.950;2023-02-15T10:45:57;2.00;99.90
1137;DHT22;557;48.466;7.950;2023-02-15T10:52:24;2.60;99.90
1137;DHT22;557;48.466;7.950;2023-02-15T10:55:20;2.70;99.90
1137;DHT22;557;48.466;7.950;2023-02-15T10:58:16;2.80;99.90
1137;DHT22;557;48.466;7.950;2023-02-15T11:01:15;3.00;99.90
1137;DHT22;557;48.466;7.950;2023-02-15T11:04:24;3.20;99.90
1137;DHT22;557;48.466;7.950;2023-02-15T11:07:20;3.20;99.90
1137;DHT22;557;48.466;7.950;2023-02-15T11:10:28;3.30;99.90
1137;DHT22;557;48.466;7.950;2023-02-15T11:13:18;3.30;78.90
1137;DHT22;557;48.466;7.950;2023-02-15T11:16:10;3.30;92.80
1137;DHT22;557;48.466;7.950;2023-02-15T11:19:05;3.40;96.30
1137;DHT22;557;48.466;7.950;2023-02-15T11:21:58;3.50;93.60
1137;DHT22;557;48.466;7.950;2023-02-15T11:24:46;3.60;87.00
1137;DHT22;557;48.466;7.950;2023-02-15T11:27:36;3.50;1.00
1137;DHT22;557;48.466;7.950;2023-02-15T11:30:26;3.10;1.00
1137;DHT22;557;48.466;7.950;2023-02-15T11:33:18;2.80;1.00
1137;DHT22;557;48.466;7.950;2023-02-15T11:36:13;2.60;67.90
1137;DHT22;557;48.466;7.950;2023-02-15T11:39:08;2.70;99.90
1137;DHT22;557;48.466;7.950;2023-02-15T11:42:01;2.90;95.50
1137;DHT22;557;48.466;7.950;2023-02-15T11:44:56;2.90;73.60
1137;DHT22;557;48.466;7.950;2023-02-15T11:47:46;3.00;46.30
1137;DHT22;557;48.466;7.950;2023-02-15T11:50:33;2.90;25.40
1137;DHT22;557;48.466;7.950;2023-02-15T11:53:21;2.70;48.20
1137;DHT22;557;48.466;7.950;2023-02-15T11:56:14;2.90;99.90
1137;DHT22;557;48.466;7.950;2023-02-15T11:59:05;3.00;44.50
1137;DHT22;557;48.466;7.950;2023-02-15T12:01:57;2.90;43.40
1137;DHT22;557;48.466;7.950;2023-02-15T12:04:49;3.10;30.40
1137;DHT22;557;48.466;7.950;2023-02-15T12:07:43;3.20;1.00
1137;DHT22;557;48.466;7.950;2023-02-15T12:10:36;3.60;1.00
1137;DHT22;557;48.466;7.950;2023-02-15T12:13:25;4.30;1.00
1137;DHT22;557;48.466;7.950;2023-02-15T12:16:12;5.00;1.00
1137;DHT22;557;48.466;7.950;2023-02-15T12:19:01;5.20;99.90
1137;DHT22;557;48.466;7.950;2023-02-15T12:21:51;5.40;1.00
1137;DHT22;557;48.466;7.950;2023-02-15T12:24:45;5.30;1.00
1137;DHT22;557;48.466;7.950;2023-02-15T12:27:34;5.50;97.60
1137;DHT22;557;48.466;7.950;2023-02-15T12:30:27;5.80;99.90
1137;DHT22;557;48.466;7.950;2023-02-15T12:33:24;5.80;1.00
1137;DHT22;557;48.466;7.950;2023-02-15T12:36:18;6.00;1.00
1137;DHT22;557;48.466;7.950;2023-02-15T12:39:18;6.30;16.40
1137;DHT22;557;48.466;7.950;2023-02-15T12:42:16;6.00;1.00
1137;DHT22;557;48.466;7.950;2023-02-15T12:45:22;5.50;99.90
1137;DHT22;557;48.466;7.950;2023-02-15T12:48:15;5.20;99.90
1137;DHT22;557;48.466;7.950;2023-02-15T12:51:08;4.90;99.90
1137;DHT22;557;48.466;7.950;2023-02-15T12:53:57;5.00;99.90
1137;DHT22;557;48.466;7.950;2023-02-15T12:56:49;5.30;99.90
1137;DHT22;557;48.466;7.950;2023-02-15T12:59:47;5.70;1.00
1137;DHT22;557;48.466;7.950;2023-02-15T13:02:40;7.00;1.00
1137;DHT22;557;48.466;7.950;2023-02-15T13:05:32;7.50;99.90
1137;DHT22;557;48.466;7.950;2023-02-15T13:08:22;7.50;1.00
1137;DHT22;557;48.466;7.950;2023-02-15T13:11:21;7.80;99.90
1137;DHT22;557;48.466;7.950;2023-02-15T13:14:17;8.30;1.00
1137;DHT22;557;48.466;7.950;2023-02-15T13:17:05;9.30;1.00
1137;DHT22;557;48.466;7.950;2023-02-15T13:19:53;9.70;1.00
1137;DHT22;557;48.466;7.950;2023-02-15T13:22:43;9.90;1.00
1137;DHT22;557;48.466;7.950;2023-02-15T13:25:40;9.70;99.90
1137;DHT22;557;48.466;7.950;2023-02-15T13:28:37;9.40;1.00
1137;DHT22;557;48.466;7.950;2023-02-15T13:31:29;8.80;1.00
1137;DHT22;557;48.466;7.950;2023-02-15T13:34:22;8.40;1.00
1137;DHT22;557;48.466;7.950;2023-02-15T13:37:15;8.30;1.00
1137;DHT22;557;48.466;7.950;2023-02-15T13:40:09;8.30;15.80
1137;DHT22;557;48.466;7.950;2023-02-15T13:43:05;8.30;86.50
1137;DHT22;557;48.466;7.950;2023-02-15T13:46:19;8.20;1.00
1137;DHT22;557;48.466;7.950;2023-02-15T13:49:16;7.80;81.90
1137;DHT22;557;48.466;7.950;2023-02-15T13:52:12;7.30;99.90
1137;DHT22;557;48.466;7.950;2023-02-15T13:55:26;7.00;1.00
1137;DHT22;557;48.466;7.950;2023-02-15T13:58:38;6.50;1.00
1137;DHT22;557;48.466;7.950;2023-02-15T14:01:39;6.20;99.90
1137;DHT22;557;48.466;7.950;2023-02-15T14:04:52;6.10;99.90
1137;DHT22;557;48.466;7.950;2023-02-15T14:07:58;6.20;1.00
1137;DHT22;557;48.466;7.950;2023-02-15T14:10:56;6.20;1.00
1137;DHT22;557;48.466;7.950;2023-02-15T14:13:56;6.20;1.00
1137;DHT22;557;48.466;7.950;2023-02-15T14:16:54;6.00;99.90
1137;DHT22;557;48.466;7.950;2023-02-15T14:19:51;5.80;52.30
1137;DHT22;557;48.466;7.950;2023-02-15T14:22:43;5.80;99.90
1137;DHT22;557;48.466;7.950;2023-02-15T14:25:37;5.70;99.90
1137;DHT22;557;48.466;7.950;2023-02-15T14:28:31;5.60;99.90
1137;DHT22;557;48.466;7.950;2023-02-15T14:31:27;5.30;1.00
1137;DHT22;557;48.466;7.950;2023-02-15T14:34:22;5.30;1.00
1137;DHT22;557;48.466;7.950;2023-02-15T14:37:11;5.20;1.00
1137;DHT22;557;48.466;7.950;2023-02-15T14:40:03;5.00;1.00
1137;DHT22;557;48.466;7.950;2023-02-15T14:43:18;4.90;1.00
1137;DHT22;557;48.466;7.950;2023-02-15T14:46:14;4.80;1.00
1137;DHT22;557;48.466;7.950;2023-02-15T14:49:06;4.70;1.00
1137;DHT22;557;48.466;7.950;2023-02-15T14:52:00;4.70;1.00
1137;DHT22;557;48.466;7.950;2023-02-15T14:55:05;4.70;1.00
1137;DHT22;557;48.466;7.950;2023-02-15T14:57:57;4.80;1.00
1137;DHT22;557;48.466;7.950;2023-02-15T15:00:44;4.80;1.00
1137;DHT22;557;48.466;7.950;2023-02-15T15:03:32;4.80;1.00
1137;DHT22;557;48.466;7.950;2023-02-15T15:06:25;4.80;1.00
1137;DHT22;557;48.466;7.950;2023-02-15T15:09:21;4.60;1.00
1137;DHT22;557;48.466;7.950;2023-02-15T15:12:37;4.50;1.00
1137;DHT22;557;48.466;7.950;2023-02-15T15:15:45;4.50;1.00
1137;DHT22;557;48.466;7.950;2023-02-15T15:18:46;4.40;1.00
1137;DHT22;557;48.466;7.950;2023-02-15T15:21:56;4.20;1.00
1137;DHT22;557;48.466;7.950;2023-02-15T15:24:49;4.30;1.00
1137;DHT22;557;48.466;7.950;2023-02-15T15:31:02;4.20;23.50
1137;DHT22;557;48.466;7.950;2023-02-15T15:34:21;4.10;40.00
1137;DHT22;557;48.466;7.950;2023-02-15T15:37:46;4.10;49.00
1137;DHT22;557;48.466;7.950;2023-02-15T15:41:10;4.20;57.20
1137;DHT22;557;48.466;7.950;2023-02-15T15:44:31;4.20;30.20
1137;DHT22;557;48.466;7.950;2023-02-15T15:47:35;4.10;27.90
1137;DHT22;557;48.466;7.950;2023-02-15T15:50:25;4.00;35.80
1137;DHT22;557;48.466;7.950;2023-02-15T15:53:19;4.00;34.30
1137;DHT22;557;48.466;7.950;2023-02-15T15:56:14;3.80;37.90
1137;DHT22;557;48.466;7.950;2023-02-15T15:59:06;3.60;58.20
1137;DHT22;557;48.466;7.950;2023-02-15T16:01:54;3.60;85.80
1137;DHT22;557;48.466;7.950;2023-02-15T16:04:46;3.50;90.40
1137;DHT22;557;48.466;7.950;2023-02-15T16:07:34;3.40;99.90
1137;DHT22;557;48.466;7.950;2023-02-15T16:10:23;3.30;99.90
1137;DHT22;557;48.466;7.950;2023-02-15T16:13:14;3.30;99.90
1137;DHT22;557;48.466;7.950;2023-02-15T16:16:02;3.20;99.90
1137;DHT22;557;48.466;7.950;2023-02-15T16:18:49;3.10;99.90
1137;DHT22;557;48.466;7.950;2023-02-15T16:21:37;3.00;99.90
1137;DHT22;557;48.466;7.950;2023-02-15T16:24:42;2.90;99.90
1137;DHT22;557;48.466;7.950;2023-02-15T16:27:35;2.80;99.90
1137;DHT22;557;48.466;7.950;2023-02-15T16:30:27;2.70;99.90
1137;DHT22;557;48.466;7.950;2023-02-15T16:33:16;2.60;99.90
1137;DHT22;557;48.466;7.950;2023-02-15T16:36:10;2.70;99.90
1137;DHT22;557;48.466;7.950;2023-02-15T16:39:08;2.70;99.90
1137;DHT22;557;48.466;7.950;2023-02-15T16:41:56;2.70;99.90
1137;DHT22;557;48.466;7.950;2023-02-15T16:44:51;2.70;99.90
1137;DHT22;557;48.466;7.950;2023-02-15T16:47:41;2.60;99.90
1137;DHT22;557;48.466;7.950;2023-02-15T16:50:33;2.50;99.90
1137;DHT22;557;48.466;7.950;2023-02-15T16:53:24;2.30;99.90
1137;DHT22;557;48.466;7.950;2023-02-15T16:56:12;2.20;99.90
1137;DHT22;557;48.466;7.950;2023-02-15T16:59:00;2.10;99.90
1137;DHT22;557;48.466;7.950;2023-02-15T17:01:50;2.20;99.90
1137;DHT22;557;48.466;7.950;2023-02-15T17:04:40;2.10;99.90
1137;DHT22;557;48.466;7.950;2023-02-15T17:07:28;2.00;99.90
1137;DHT22;557;48.466;7.950;2023-02-15T17:10:30;2.00;99.90
1137;DHT22;557;48.466;7.950;2023-02-15T17:13:18;2.00;99.90
1137;DHT22;557;48.466;7.950;2023-02-15T17:16:27;1.80;99.90
1137;DHT22;557;48.466;7.950;2023-02-15T17:19:21;1.70;99.90
1137;DHT22;557;48.466;7.950;2023-02-15T17:22:17;1.70;99.90
1137;DHT22;557;48.466;7.950;2023-02-15T17:25:06;1.60;99.90
1137;DHT22;557;48.466;7.950;2023-02-15T17:27:54;1.50;99.90
1137;DHT22;557;48.466;7.950;2023-02-15T17:30:42;1.40;99.90
1137;DHT22;557;48.466;7.950;2023-02-15T17:33:37;1.30;99.90
1137;DHT22;557;48.466;7.950;2023-02-15T17:36:27;1.40;99.90
1137;DHT22;557;48.466;7.950;2023-02-15T17:39:21;1.20;99.90
1137;DHT22;557;48.466;7.950;2023-02-15T17:42:08;1.20;99.90
1137;DHT22;557;48.466;7.950;2023-02-15T17:44:55;1.20;99.90
1137;DHT22;557;48.466;7.950;2023-02-15T17:47:46;1.10;99.90
1137;DHT22;557;48.466;7.950;2023-02-15T17:50:35;1.10;99.90
1137;DHT22;557;48.466;7.950;2023-02-15T17:53:23;1.10;99.90
1137;DHT22;557;48.466;7.950;2023-02-15T17:56:13;1.10;99.90
1137;DHT22;557;48.466;7.950;2023-02-15T17:59:00;1.00;99.90
1137;DHT22;557;48.466;7.950;2023-02-15T18:01:48;1.00;99.90
1137;DHT22;557;48.466;7.950;2023-02-15T18:04:53;1.00;99.90
1137;DHT22;557;48.466;7.950;2023-02-15T18:07:58;1.00;99.90
1137;DHT22;557;48.466;7.950;2023-02-15T18:11:03;1.00;99.90
1137;DHT22;557;48.466;7.950;2023-02-15T18:14:10;1.00;99.90
1137;DHT22;557;48.466;7.950;2023-02-15T18:16:57;1.10;99.90
1137;DHT22;557;48.466;7.950;2023-02-15T18:19:45;1.00;99.90
1137;DHT22;557;48.466;7.950;2023-02-15T18:22:33;0.90;99.90
1137;DHT22;557;48.466;7.950;2023-02-15T18:25:21;1.00;99.90
1137;DHT22;557;48.466;7.950;2023-02-15T18:28:11;1.10;99.90
1137;DHT22;557;48.466;7.950;2023-02-15T18:31:00;1.00;99.90
1137;DHT22;557;48.466;7.950;2023-02-15T18:33:48;1.10;99.90
1137;DHT22;557;48.466;7.950;2023-02-15T18:36:41;1.10;99.90
1137;DHT22;557;48.466;7.950;2023-02-15T18:39:35;1.10;99.90
1137;DHT22;557;48.466;7.950;2023-02-15T18:42:25;1.10;99.90
1137;DHT22;557;48.466;7.950;2023-02-15T18:45:15;1.00;99.90
1137;DHT22;557;48.466;7.950;2023-02-15T18:48:04;0.90;99.90
1137;DHT22;557;48.466;7.950;2023-02-15T18:50:53;0.90;99.90
1137;DHT22;557;48.466;7.950;2023-02-15T18:53:40;0.90;99.90
1137;DHT22;557;48.466;7.950;2023-02-15T18:56:29;1.10;99.90
1137;DHT22;557;48.466;7.950;2023-02-15T18:59:17;1.10;99.90
1137;DHT22;557;48.466;7.950;2023-02-15T19:02:10;1.00;99.90
1137;DHT22;557;48.466;7.950;2023-02-15T19:04:59;0.90;99.90
1137;DHT22;557;48.466;7.950;2023-02-15T19:07:47;0.90;99.90
1137;DHT22;557;48.466;7.950;2023-02-15T19:10:34;0.90;99.90
1137;DHT22;557;48.466;7.950;2023-02-15T19:13:22;0.90;99.90
1137;DHT22;557;48.466;7.950;2023-02-15T19:16:18;0.80;99.90
1137;DHT22;557;48.466;7.950;2023-02-15T19:19:09;0.80;99.90
1137;DHT22;557;48.466;7.950;2023-02-15T19:21:58;0.80;99.90
1137;DHT22;557;48.466;7.950;2023-02-15T19:24:46;0.80;99.90
1137;DHT22;557;48.466;7.950;2023-02-15T19:27:34;0.70;99.90
1137;DHT22;557;48.466;7.950;2023-02-15T19:30:24;0.70;99.90